createdAt,value
2022-10-15T00:05:03.357Z,2.3
2022-10-15T00:10:03.372Z,1.9
2022-10-15T00:15:13.657Z,1.7
2022-10-15T00:21:03.397Z,1.8
2022-10-15T00:26:13.615Z,1.9
2022-10-15T00:31:13.638Z,2.2
2022-10-15T00:37:03.363Z,2.1
2022-10-15T00:42:13.425Z,2
2022-10-15T00:47:13.675Z,2
2022-10-15T00:53:03.126Z,2
2022-10-15T00:58:03.469Z,1.9
2022-10-15T01:03:13.848Z,1.7
2022-10-15T01:09:03.364Z,1.7
2022-10-15T01:14:13.442Z,1.9
2022-10-15T01:19:13.584Z,1.8
2022-10-15T01:24:13.679Z,2.1
2022-10-15T01:30:03.379Z,2
2022-10-15T01:35:03.428Z,1.8
2022-10-15T01:40:13.662Z,2.1
2022-10-15T01:46:03.362Z,2.1
2022-10-15T01:51:13.705Z,2
2022-10-15T01:57:03.257Z,1.8
2022-10-15T02:02:03.343Z,2
2022-10-15T02:07:03.400Z,2
2022-10-15T02:12:13.655Z,1.8
2022-10-15T02:17:13.680Z,1.8
2022-10-15T02:23:03.386Z,1.9
2022-10-15T02:28:03.416Z,1.7
2022-10-15T02:33:04.361Z,1.9
2022-10-15T02:44:03.611Z,1.9
2022-10-15T02:49:13.638Z,1.9
2022-10-15T02:54:13.670Z,1.9
2022-10-15T02:59:13.640Z,1.7
2022-10-15T03:04:13.741Z,1.8
2022-10-15T03:09:23.973Z,2.1
2022-10-15T03:15:03.366Z,1.9
2022-10-15T03:20:03.456Z,2
2022-10-15T03:25:13.678Z,1.7
2022-10-15T03:30:13.677Z,1.8
2022-10-15T03:36:03.389Z,1.7
2022-10-15T03:41:05.703Z,1.8
2022-10-15T03:46:13.397Z,1.8
2022-10-15T03:51:15.703Z,1.8
2022-10-15T03:57:03.172Z,1.8
2022-10-15T04:02:13.673Z,1.5
2022-10-15T04:08:03.122Z,1.8
2022-10-15T04:13:03.218Z,1.9
2022-10-15T04:18:13.410Z,1.9
2022-10-15T04:24:03.336Z,1.8
2022-10-15T04:29:13.479Z,1.7
2022-10-15T04:34:13.492Z,1.7
2022-10-15T04:40:03.107Z,1.5
2022-10-15T04:45:03.211Z,1.6
2022-10-15T04:50:03.214Z,1.7
2022-10-15T04:55:13.482Z,1.9
2022-10-15T05:00:13.493Z,1.7
2022-10-15T05:05:13.496Z,1.7
2022-10-15T05:10:17.646Z,1.6
2022-10-15T05:16:03.214Z,1.6
2022-10-15T05:21:03.268Z,1.7
2022-10-15T05:26:13.458Z,1.7
2022-10-15T05:32:03.211Z,1.7
2022-10-15T05:37:03.393Z,1.7
2022-10-15T05:42:13.454Z,1.7
2022-10-15T05:47:13.687Z,1.7
2022-10-15T05:52:13.696Z,1.8
2022-10-15T05:57:13.705Z,1.8
2022-10-15T06:03:03.217Z,1.7
2022-10-15T06:08:03.393Z,1.6
2022-10-15T06:13:03.421Z,1.9
2022-10-15T06:18:13.705Z,1.7
2022-10-15T06:24:06.303Z,1.6
2022-10-15T06:29:13.566Z,1.8
2022-10-15T06:34:13.913Z,2
2022-10-15T06:40:03.416Z,2.2
2022-10-15T06:45:03.494Z,2.1
2022-10-15T06:50:13.657Z,2.4
2022-10-15T06:55:13.690Z,2.3
2022-10-15T07:00:13.709Z,1.9
2022-10-15T07:05:13.809Z,2.1
2022-10-15T07:10:21.478Z,1.8
2022-10-15T07:16:03.412Z,2.2
2022-10-15T07:21:13.698Z,2.4
2022-10-15T07:27:08.008Z,2.3
2022-10-15T07:32:03.410Z,2.6
2022-10-15T07:37:03.409Z,2.9
2022-10-15T07:42:03.457Z,2.7
2022-10-15T07:47:13.702Z,2.9
2022-10-15T07:52:13.677Z,2.6
2022-10-15T07:57:13.700Z,2.7
2022-10-15T08:02:13.709Z,2.3
2022-10-15T08:08:03.456Z,3
2022-10-15T08:13:03.413Z,3.1
2022-10-15T08:18:13.509Z,3.2
2022-10-15T08:23:13.706Z,3.4
2022-10-15T08:28:13.710Z,3.4
2022-10-15T08:34:03.294Z,3.1
2022-10-15T08:39:13.654Z,3
2022-10-15T08:44:13.745Z,3
2022-10-15T08:50:03.206Z,3.2
2022-10-15T08:55:03.408Z,3.2
2022-10-15T09:00:13.837Z,3.5
2022-10-15T09:06:03.401Z,3.3
2022-10-15T09:11:03.586Z,3.3
2022-10-15T09:16:03.420Z,3.6
2022-10-15T09:21:13.693Z,3.8
2022-10-15T09:27:03.455Z,3.5
2022-10-15T09:32:13.487Z,3.6
2022-10-15T09:37:13.749Z,3.3
2022-10-15T09:43:03.498Z,3.2
2022-10-15T09:48:13.720Z,3.3
2022-10-15T09:54:03.423Z,3.4
2022-10-15T09:59:05.940Z,3.5
2022-10-15T10:04:13.439Z,3.5
2022-10-15T10:09:13.501Z,3.5
2022-10-15T10:14:13.774Z,3.4
2022-10-15T10:20:03.441Z,3.7
2022-10-15T10:25:13.734Z,3.6
2022-10-15T10:31:03.480Z,3.7
2022-10-15T10:36:13.733Z,3.6
2022-10-15T10:41:13.754Z,3.3
2022-10-15T10:47:03.288Z,3.7
2022-10-15T10:52:03.280Z,3.9
2022-10-15T10:57:03.271Z,3.4
2022-10-15T11:02:13.543Z,3.8
2022-10-15T11:08:03.266Z,4
2022-10-15T11:13:13.579Z,4.2
2022-10-15T11:19:09.337Z,4
2022-10-15T11:24:13.561Z,3.8
2022-10-15T11:30:03.208Z,4.2
2022-10-15T11:35:03.280Z,4.2
2022-10-15T11:40:13.545Z,4
2022-10-15T11:45:13.572Z,4
2022-10-15T11:50:13.611Z,4.2
2022-10-15T11:55:13.606Z,4
2022-10-15T12:00:13.756Z,4
2022-10-15T12:06:03.260Z,4
2022-10-15T12:11:03.457Z,4.1
2022-10-15T12:16:13.745Z,3.9
2022-10-15T12:21:13.792Z,4
2022-10-15T12:27:03.413Z,4.1
2022-10-15T12:32:03.450Z,4
2022-10-15T12:37:13.790Z,3.6
2022-10-15T12:43:03.458Z,3.5
2022-10-15T12:48:13.718Z,3.5
2022-10-15T12:53:13.770Z,3.5
2022-10-15T12:58:13.734Z,3.3
2022-10-15T13:03:13.753Z,3.6
2022-10-15T13:09:03.313Z,3.8
2022-10-15T13:14:03.505Z,3.9
2022-10-15T13:19:13.581Z,4
2022-10-15T13:24:13.771Z,4
2022-10-15T13:30:03.513Z,4.1
2022-10-15T13:35:13.879Z,3.8
2022-10-15T13:41:03.461Z,3.5
2022-10-15T13:46:03.459Z,3.6
2022-10-15T13:52:03.465Z,3.4
2022-10-15T13:57:03.513Z,3.8
2022-10-15T14:02:03.503Z,4
2022-10-15T14:07:13.894Z,4
2022-10-15T14:13:03.360Z,3.9
2022-10-15T14:18:03.456Z,3.4
2022-10-15T14:23:13.567Z,3.6
2022-10-15T14:28:13.656Z,4
2022-10-15T14:33:13.650Z,3.8
2022-10-15T14:39:03.257Z,3.9
2022-10-15T14:44:03.477Z,4
2022-10-15T14:49:03.526Z,3.9
2022-10-15T14:54:13.752Z,4.1
2022-10-15T14:59:13.803Z,3.8
2022-10-15T15:04:13.802Z,3.9
2022-10-15T15:09:13.849Z,4
2022-10-15T15:15:03.519Z,3.7
2022-10-15T15:25:13.773Z,3.8
2022-10-15T15:30:13.815Z,3.6
2022-10-15T15:36:03.290Z,3.6
2022-10-15T15:41:03.460Z,3.6
2022-10-15T15:46:13.828Z,3.4
2022-10-15T15:52:03.492Z,3.5
2022-10-15T15:57:03.521Z,3.4
2022-10-15T16:02:13.826Z,3.2
2022-10-15T16:08:03.325Z,3.2
2022-10-15T16:13:03.476Z,2.9
2022-10-15T16:18:03.555Z,2.8
2022-10-15T16:23:13.794Z,2.4
2022-10-15T16:28:13.845Z,2.4
2022-10-15T16:34:03.539Z,2.3
2022-10-15T16:39:13.545Z,2.2
2022-10-15T16:44:13.769Z,2
2022-10-15T16:49:19.954Z,2
2022-10-15T16:55:03.393Z,2.2
2022-10-15T17:00:13.605Z,2
2022-10-15T17:06:03.349Z,2.4
2022-10-15T17:11:13.595Z,2.5
2022-10-15T17:16:13.607Z,2.5
2022-10-15T17:21:13.648Z,2.4
2022-10-15T17:27:03.338Z,2.5
2022-10-15T17:32:03.431Z,2.4
2022-10-15T17:37:13.710Z,2.8
2022-10-15T17:43:03.313Z,2.7
2022-10-15T17:48:13.606Z,2.7
2022-10-15T17:53:13.644Z,3
2022-10-15T17:59:03.355Z,2.5
2022-10-15T18:04:04.747Z,2.7
2022-10-15T18:09:13.618Z,2.7
2022-10-15T18:14:13.785Z,3
2022-10-15T18:20:03.499Z,2.7
2022-10-15T18:25:03.494Z,2.6
2022-10-15T18:30:03.844Z,2.8
2022-10-15T18:35:13.812Z,2.8
2022-10-15T18:40:13.991Z,2.3
2022-10-15T18:46:03.565Z,2.4
2022-10-15T18:51:13.627Z,2.2
2022-10-15T18:57:03.517Z,2.4
2022-10-15T19:02:03.653Z,2.2
2022-10-15T19:07:13.625Z,2.2
2022-10-15T19:12:13.659Z,2.1
2022-10-15T19:17:13.863Z,2.1
2022-10-15T19:23:03.525Z,2.1
2022-10-15T19:28:13.856Z,1.9
2022-10-15T19:34:03.528Z,2
2022-10-15T19:39:03.586Z,1.9
2022-10-15T19:44:13.828Z,1.8
2022-10-15T19:50:03.555Z,1.9
2022-10-15T19:55:13.818Z,1.9
2022-10-15T20:01:03.637Z,2
2022-10-15T20:06:03.606Z,1.8
2022-10-15T20:11:13.617Z,1.9
2022-10-15T20:16:13.836Z,2.1
2022-10-15T20:22:03.578Z,2
2022-10-15T20:27:13.787Z,1.7
2022-10-15T20:32:23.427Z,2.2
2022-10-15T20:37:13.846Z,1.9
2022-10-15T20:42:13.861Z,1.9
2022-10-15T20:48:03.521Z,1.7
2022-10-15T20:53:03.820Z,1.8
2022-10-15T20:58:16.884Z,1.8
2022-10-15T21:04:03.958Z,1.8
2022-10-15T21:09:13.861Z,1.6
2022-10-15T21:14:13.838Z,1.8
2022-10-15T21:20:03.548Z,1.9
2022-10-15T21:25:13.902Z,1.9
2022-10-15T21:31:03.625Z,2
2022-10-15T21:36:13.867Z,1.8
2022-10-15T21:42:03.571Z,1.9
2022-10-15T21:47:03.542Z,2.1
2022-10-15T21:52:13.785Z,1.9
2022-10-15T21:57:13.863Z,1.9
2022-10-15T22:03:03.370Z,2
2022-10-15T22:08:03.535Z,1.8
2022-10-15T22:13:03.574Z,1.9
2022-10-15T22:18:03.554Z,1.9
2022-10-15T22:23:03.562Z,1.9
2022-10-15T22:28:13.878Z,1.7
2022-10-15T22:34:03.598Z,1.6
2022-10-15T22:39:13.815Z,1.8
2022-10-15T22:44:13.876Z,1.9
2022-10-15T22:50:03.547Z,1.9
2022-10-15T22:55:03.577Z,1.8
2022-10-15T23:00:03.576Z,2
2022-10-15T23:05:13.751Z,1.7
2022-10-15T23:10:13.812Z,1.8
2022-10-15T23:15:13.878Z,1.7
2022-10-15T23:21:03.410Z,2.1
2022-10-15T23:26:13.651Z,1.9
2022-10-15T23:31:13.691Z,2
2022-10-15T23:37:03.371Z,1.9
2022-10-15T23:42:13.597Z,1.9
2022-10-15T23:47:13.664Z,2.1
2022-10-15T23:53:03.328Z,1.8
2022-10-15T23:58:03.365Z,1.8
